Time;durP1;ratioP1;P1;durP2;ratioP2;P2;SDS_P1;SDS_P2;PMS_P1;PMS_P2;Temp;Humidity;BMP_temperature;BMP_pressure;BME280_temperature;BME280_humidity;BME280_pressure;Samples;Min_cycle;Max_cycle;Signal;HPM_P1;HPM_P2
2022/03/29 00:00:04;;;;;;;33.90;30.10;;;;;;;8.87;47.11;97432.98;105153;1284;24334;-81
2022/03/29 00:02:59;;;;;;;32.40;26.70;;;;;;;8.92;47.14;97426.81;105262;1284;22574;-80
2022/03/29 00:05:27;;;;;;;27.30;22.90;;;;;;;8.99;46.80;97423.45;104897;1285;22550;-81
2022/03/29 00:07:55;;;;;;;26.10;23.30;;;;;;;9.05;47.14;97418.83;105244;1284;24319;-81
2022/03/29 00:10:23;;;;;;;26.20;22.60;;;;;;;9.10;47.07;97419.13;105234;1284;24321;-79
2022/03/29 00:12:53;;;;;;;24.40;21.70;;;;;;;9.11;46.83;97420.25;105309;1284;24289;-81
2022/03/29 00:15:23;;;;;;;27.50;22.90;;;;;;;9.14;47.24;97416.77;105437;1284;24555;-81
2022/03/29 00:17:51;;;;;;;25.10;22.40;;;;;;;9.21;47.20;97424.34;105124;1285;26527;-81
2022/03/29 00:20:36;;;;;;;26.40;22.20;;;;;;;9.30;48.03;97419.63;105271;1284;22567;-80
2022/03/29 00:23:19;;;;;;;24.40;21.80;;;;;;;9.37;48.17;97414.65;104747;1284;23389;-81
2022/03/29 00:25:47;;;;;;;23.30;20.80;;;;;;;9.42;47.96;97416.25;105180;1285;22632;-80
2022/03/29 00:28:15;;;;;;;23.90;21.40;;;;;;;9.48;47.38;97413.27;105186;1284;24428;-80
2022/03/29 00:30:43;;;;;;;28.70;21.50;;;;;;;9.52;47.74;97416.30;105205;1284;176894;-80
2022/03/29 00:33:11;;;;;;;29.50;25.40;;;;;;;9.57;48.36;97422.96;105369;1286;22887;-80
2022/03/29 00:35:39;;;;;;;37.10;29.40;;;;;;;9.62;49.10;97425.49;105194;1284;22560;-80
2022/03/29 00:38:07;;;;;;;30.30;26.90;;;;;;;9.66;48.81;97416.54;105188;1284;23214;-79
2022/03/29 00:40:35;;;;;;;30.00;24.10;;;;;;;9.68;49.30;97406.16;105164;1284;24796;-81
2022/03/29 00:43:05;;;;;;;25.40;22.80;;;;;;;9.70;49.54;97401.73;105190;1285;22583;-81
2022/03/29 00:45:33;;;;;;;25.40;22.90;;;;;;;9.72;50.11;97406.91;105228;1285;22568;-80
2022/03/29 00:48:02;;;;;;;38.40;33.90;;;;;;;9.72;49.93;97399.66;104902;1284;25360;-81
2022/03/29 00:50:30;;;;;;;39.30;35.30;;;;;;;9.66;49.92;97383.50;105421;1284;25360;-80
2022/03/29 00:52:58;;;;;;;31.10;27.50;;;;;;;9.56;52.53;97392.86;105193;1285;22563;-79
2022/03/29 00:55:26;;;;;;;28.40;25.60;;;;;;;9.50;54.34;97397.55;105636;1284;25346;-79
2022/03/29 00:57:54;;;;;;;26.70;24.10;;;;;;;9.48;55.10;97390.20;105103;1284;25713;-80
2022/03/29 01:00:23;;;;;;;26.70;24.10;;;;;;;9.48;56.59;97380.90;105316;1284;22640;-77
2022/03/29 01:02:52;;;;;;;25.30;22.60;;;;;;;9.52;55.64;97374.66;105074;1284;22733;-79
2022/03/29 01:05:20;;;;;;;24.60;22.00;;;;;;;9.59;54.91;97379.24;105218;1284;23950;-80
2022/03/29 01:07:48;;;;;;;25.90;22.90;;;;;;;9.66;55.81;97386.20;105411;1284;25548;-80
2022/03/29 01:10:16;;;;;;;25.80;23.00;;;;;;;9.71;54.90;97396.10;105006;1284;24099;-79
2022/03/29 01:12:44;;;;;;;25.10;22.50;;;;;;;9.77;55.00;97398.41;105015;1284;23382;-79
2022/03/29 01:15:13;;;;;;;28.10;25.30;;;;;;;9.80;54.38;97391.85;105037;1284;23942;-80
2022/03/29 01:17:43;;;;;;;26.80;24.00;;;;;;;9.80;54.40;97392.26;105001;1284;22566;-79
2022/03/29 01:20:16;;;;;;;29.70;26.50;;;;;;;9.79;54.09;97386.35;105422;1284;24336;-78
2022/03/29 01:22:47;;;;;;;27.70;25.10;;;;;;;9.77;54.52;97380.71;105248;1284;22721;-79
2022/03/29 01:25:18;;;;;;;29.00;25.10;;;;;;;9.74;54.68;97361.50;105493;1283;22547;-79
2022/03/29 01:27:49;;;;;;;28.90;26.00;;;;;;;9.73;54.17;97347.38;105727;1285;22561;-78
2022/03/29 01:30:18;;;;;;;32.00;28.70;;;;;;;9.71;55.25;97340.34;107629;1284;22603;-79
2022/03/29 01:32:51;;;;;;;32.00;28.80;;;;;;;9.71;56.02;97330.12;105148;1285;22613;-79
2022/03/29 01:35:22;;;;;;;32.30;28.40;;;;;;;9.71;56.18;97331.30;105413;1284;22564;-78
2022/03/29 01:37:51;;;;;;;37.10;29.00;;;;;;;9.72;56.73;97326.73;105784;1284;24305;-79
2022/03/29 01:40:21;;;;;;;32.60;29.00;;;;;;;9.72;56.52;97312.05;105364;1284;22576;-78
2022/03/29 01:42:56;;;;;;;32.80;29.40;;;;;;;9.69;55.68;97307.73;105434;1284;22570;-79
2022/03/29 01:45:25;;;;;;;;;;;;;;;9.61;56.02;97302.77;105440;1284;22591;-78
2022/03/29 01:47:53;;;;;;;33.60;28.60;;;;;;;9.48;55.56;97301.87;105200;1284;24559;-79
2022/03/29 01:50:22;;;;;;;33.80;29.30;;;;;;;9.39;55.26;97299.04;105188;1284;22613;-79
2022/03/29 01:52:50;;;;;;;31.60;28.50;;;;;;;9.28;55.42;97294.24;105209;1285;23961;-79
2022/03/29 01:55:20;;;;;;;35.50;31.80;;;;;;;9.16;56.36;97305.04;105203;1285;23363;-79
2022/03/29 01:57:50;;;;;;;37.10;30.40;;;;;;;9.08;57.65;97306.14;105364;1284;24438;-78
2022/03/29 02:00:30;;;;;;;36.70;31.80;;;;;;;9.06;59.51;97300.91;105450;1284;22842;-79
2022/03/29 02:03:05;;;;;;;35.50;29.20;;;;;;;9.11;58.11;97301.39;105041;1284;22748;-78
2022/03/29 02:05:33;;;;;;;;;;;;;;;9.15;56.87;97302.05;105305;1284;22540;-79
2022/03/29 02:08:02;;;;;;;34.10;30.40;;;;;;;9.16;56.81;97304.36;105174;1284;24529;-80
2022/03/29 02:10:30;;;;;;;39.40;35.10;;;;;;;9.17;56.52;97304.88;105197;1285;24421;-79
2022/03/29 02:12:59;;;;;;;37.80;34.30;;;;;;;9.12;56.15;97301.11;105206;1285;22716;-79
2022/03/29 02:15:27;;;;;;;37.00;33.00;;;;;;;9.04;55.98;97296.98;105259;1285;22700;-79
2022/03/29 02:17:55;;;;;;;39.50;35.70;;;;;;;8.95;56.24;97299.44;105604;1285;22541;-79
2022/03/29 02:20:24;;;;;;;42.30;37.80;;;;;;;8.87;56.21;97301.98;105421;1285;22586;-77
2022/03/29 02:22:51;;;;;;;41.30;37.10;;;;;;;8.76;56.15;97298.29;105509;1284;22561;-76
2022/03/29 02:25:21;;;;;;;40.90;36.80;;;;;;;8.66;56.54;97293.52;105199;1284;25426;-77
2022/03/29 02:27:49;;;;;;;39.90;36.00;;;;;;;8.56;56.48;97295.81;105455;1284;26508;-79
2022/03/29 02:30:17;;;;;;;40.00;36.20;;;;;;;8.49;57.09;97296.87;104911;1287;22775;-80
2022/03/29 02:32:45;;;;;;;38.00;33.30;;;;;;;8.45;57.08;97298.18;105343;1284;22629;-80
2022/03/29 02:35:14;;;;;;;36.80;33.10;;;;;;;8.41;56.95;97305.76;107495;1284;24310;-79
2022/03/29 02:37:42;;;;;;;43.70;36.00;;;;;;;8.37;57.55;97304.27;107187;1284;23122;-80
2022/03/29 02:40:13;;;;;;;44.80;40.40;;;;;;;8.33;57.77;97302.25;105906;1285;22772;-78
2022/03/29 02:42:48;;;;;;;48.20;43.50;;;;;;;8.28;58.38;97289.89;105693;1284;24308;-81
2022/03/29 02:45:21;;;;;;;51.50;46.40;;;;;;;8.26;58.18;97285.21;105411;1284;24477;-80
2022/03/29 02:47:53;;;;;;;47.70;43.00;;;;;;;8.24;58.09;97277.96;105537;1284;25357;-81
2022/03/29 02:50:23;;;;;;;45.20;40.50;;;;;;;8.22;57.93;97286.52;105966;1285;26671;-78
2022/03/29 02:52:54;;;;;;;50.20;45.50;;;;;;;8.19;58.32;97287.59;105269;1285;24405;-80
2022/03/29 02:55:24;;;;;;;48.20;43.20;;;;;;;8.16;58.00;97291.98;105608;1284;25316;-80
2022/03/29 02:57:53;;;;;;;49.90;44.90;;;;;;;8.14;58.11;97292.56;105551;1285;25325;-79
2022/03/29 03:00:21;;;;;;;55.00;49.60;;;;;;;8.14;58.02;97291.77;105442;1284;24131;-79
2022/03/29 03:02:50;;;;;;;41.80;37.50;;;;;;;8.13;58.05;97296.69;105712;1284;22656;-81
2022/03/29 03:05:24;;;;;;;45.80;38.80;;;;;;;8.05;58.26;97296.83;105540;1284;26648;-79
2022/03/29 03:07:53;;;;;;;51.00;45.90;;;;;;;7.91;58.60;97301.20;106205;1284;22545;-78
2022/03/29 03:10:21;;;;;;;54.80;49.40;;;;;;;7.79;58.76;97299.11;105201;1284;25533;-80
2022/03/29 03:12:50;;;;;;;53.00;47.50;;;;;;;7.71;58.52;97298.49;105129;1284;25428;-80
2022/03/29 03:15:21;;;;;;;47.90;43.30;;;;;;;7.60;58.56;97304.30;105181;1284;24281;-80
2022/03/29 03:17:51;;;;;;;52.80;47.90;;;;;;;7.43;58.77;97306.91;105392;1286;22551;-81
2022/03/29 03:20:21;;;;;;;50.10;45.50;;;;;;;7.28;59.46;97302.41;105166;1284;22560;-79
2022/03/29 03:22:53;;;;;;;50.40;45.50;;;;;;;7.19;59.39;97294.88;105179;1285;22622;-79
2022/03/29 03:25:21;;;;;;;48.20;43.40;;;;;;;7.19;59.69;97293.55;105239;1285;22566;-79
2022/03/29 03:27:49;;;;;;;47.60;43.00;;;;;;;7.21;59.86;97291.36;104974;1285;24483;-80
2022/03/29 03:30:17;;;;;;;52.70;48.00;;;;;;;7.16;59.80;97295.51;105266;1284;25378;-78
2022/03/29 03:32:46;;;;;;;50.20;45.50;;;;;;;7.09;59.93;97294.83;105020;1284;22618;-78
2022/03/29 03:35:18;;;;;;;58.90;53.80;;;;;;;6.98;59.80;97294.33;104989;1286;25429;-78
2022/03/29 03:37:47;;;;;;;57.70;52.50;;;;;;;6.94;60.45;97292.02;105161;1284;25311;-80
2022/03/29 03:40:15;;;;;;;55.80;50.60;;;;;;;6.97;60.76;97288.45;105479;1284;23214;-79
2022/03/29 03:42:43;;;;;;;55.00;49.80;;;;;;;7.00;60.66;97281.81;105107;1284;24330;-80
2022/03/29 03:45:11;;;;;;;62.00;56.20;;;;;;;7.03;61.30;97280.27;105394;1285;24142;-79
2022/03/29 03:47:39;;;;;;;62.30;56.50;;;;;;;7.06;60.88;97279.06;105196;1284;25407;-79
2022/03/29 03:50:08;;;;;;;56.60;51.40;;;;;;;6.98;60.59;97276.27;105014;1286;22577;-80
2022/03/29 03:52:36;;;;;;;64.70;59.10;;;;;;;6.81;60.57;97268.86;105181;1286;24556;-80
2022/03/29 03:55:05;;;;;;;64.00;58.00;;;;;;;6.69;60.63;97272.29;105203;1284;22697;-80
2022/03/29 03:57:33;;;;;;;59.40;53.80;;;;;;;6.63;64.77;97272.70;105306;1284;22664;-80
2022/03/29 04:00:01;;;;;;;57.90;52.60;;;;;;;6.62;62.74;97272.86;105015;1284;22630;-80
2022/03/29 04:02:39;;;;;;;60.60;55.00;;;;;;;6.56;62.16;97271.93;105234;1284;25389;-80
2022/03/29 04:05:12;;;;;;;64.90;58.70;;;;;;;6.44;61.96;97274.76;105272;1284;22557;-80
2022/03/29 04:07:40;;;;;;;98.90;78.40;;;;;;;6.34;62.28;97277.71;105306;1284;24420;-81
2022/03/29 04:10:09;;;;;;;121.90;87.90;;;;;;;6.21;62.27;97287.39;105236;1285;23394;-82
2022/03/29 04:12:37;;;;;;;73.50;66.10;;;;;;;6.01;62.80;97290.17;105281;1286;22714;-82
2022/03/29 04:15:06;;;;;;;69.90;63.10;;;;;;;5.92;63.41;97294.09;104906;1287;22503;-82
2022/03/29 04:17:34;;;;;;;70.70;64.20;;;;;;;5.90;63.44;97291.39;105431;1284;22668;-82
2022/03/29 04:20:02;;;;;;;71.30;65.00;;;;;;;5.98;64.21;97286.51;105362;1286;24293;-82
2022/03/29 04:22:30;;;;;;;63.20;57.20;;;;;;;6.08;64.42;97281.06;105448;1284;22563;-81
2022/03/29 04:24:58;;;;;;;61.00;55.70;;;;;;;6.14;64.45;97275.69;105234;1284;22568;-80
2022/03/29 04:27:26;;;;;;;58.20;52.80;;;;;;;6.25;64.52;97260.38;105097;1285;25319;-82
2022/03/29 04:29:54;;;;;;;55.40;50.10;;;;;;;6.37;64.23;97261.41;105498;1284;22893;-81
2022/03/29 04:32:22;;;;;;;50.90;46.20;;;;;;;6.49;64.46;97255.30;105390;1284;23549;-81
2022/03/29 04:34:50;;;;;;;51.20;46.60;;;;;;;6.63;64.69;97256.57;105313;1284;24456;-81
2022/03/29 04:37:18;;;;;;;55.10;50.30;;;;;;;6.73;64.49;97255.52;105417;1284;25316;-81
2022/03/29 04:39:46;;;;;;;55.90;50.60;;;;;;;6.82;64.88;97254.97;105444;1284;25331;-81
2022/03/29 04:42:14;;;;;;;55.00;50.20;;;;;;;6.85;64.07;97255.67;105342;1286;22566;-81
2022/03/29 04:44:42;;;;;;;53.30;48.30;;;;;;;6.73;64.97;97262.70;105271;1285;25384;-81
2022/03/29 04:47:10;;;;;;;54.00;49.20;;;;;;;6.64;64.28;97273.27;105235;1284;22704;-80
2022/03/29 04:49:38;;;;;;;52.30;46.30;;;;;;;6.55;64.35;97273.06;105177;1284;24674;-80
2022/03/29 04:52:10;;;;;;;48.60;43.90;;;;;;;6.58;64.80;97270.92;105198;1284;23946;-79
2022/03/29 04:54:40;;;;;;;50.30;41.00;;;;;;;6.69;65.27;97269.30;105163;1284;22675;-79
2022/03/29 04:57:08;;;;;;;45.30;40.90;;;;;;;6.83;65.85;97269.33;105297;1285;26504;-80
2022/03/29 04:59:37;;;;;;;45.20;41.20;;;;;;;6.96;66.87;97268.69;105331;1287;22570;-80
2022/03/29 05:02:05;;;;;;;66.80;60.70;;;;;;;7.08;66.30;97268.09;105078;1284;25704;-81
2022/03/29 05:04:33;;;;;;;47.50;43.10;;;;;;;7.18;65.84;97263.11;105128;1286;22751;-81
2022/03/29 05:07:01;;;;;;;46.30;42.10;;;;;;;7.28;65.75;97260.45;105385;1285;22697;-82
2022/03/29 05:09:29;;;;;;;52.60;47.10;;;;;;;7.37;65.68;97264.20;105160;1284;24354;-80
2022/03/29 05:11:59;;;;;;;45.50;41.20;;;;;;;7.47;65.07;97254.60;105209;1284;25382;-80
2022/03/29 05:14:29;;;;;;;49.40;44.40;;;;;;;7.59;64.94;97251.48;105124;1286;22563;-80
2022/03/29 05:16:57;;;;;;;52.00;47.10;;;;;;;7.70;64.81;97247.13;105339;1284;22563;-80
2022/03/29 05:19:25;;;;;;;57.70;52.20;;;;;;;7.81;64.83;97242.11;105392;1284;22577;-80
2022/03/29 05:21:53;;;;;;;61.60;55.70;;;;;;;7.89;64.85;97240.77;105412;1284;25408;-81
2022/03/29 05:24:21;;;;;;;62.40;56.30;;;;;;;7.98;64.65;97241.48;105257;1284;23629;-81
2022/03/29 05:26:49;;;;;;;66.30;59.40;;;;;;;8.05;64.85;97245.09;105379;1284;22706;-78
2022/03/29 05:29:18;;;;;;;60.10;54.30;;;;;;;8.11;64.60;97255.33;105308;1284;24244;-79
2022/03/29 05:31:45;;;;;;;55.40;50.10;;;;;;;8.17;64.30;97258.88;105328;1284;22569;-80
2022/03/29 05:34:14;;;;;;;59.60;53.40;;;;;;;8.18;64.34;97267.42;105386;1284;25371;-79
2022/03/29 05:36:45;;;;;;;52.20;46.10;;;;;;;8.23;64.29;97266.64;105403;1284;24007;-79
2022/03/29 05:39:16;;;;;;;47.10;42.50;;;;;;;8.27;64.33;97268.08;105164;1284;23982;-80
2022/03/29 05:41:45;;;;;;;47.60;43.10;;;;;;;8.31;64.98;97268.31;105123;1284;22563;-79
2022/03/29 05:44:12;;;;;;;52.50;44.90;;;;;;;8.35;64.93;97269.25;105152;1284;23084;-78
2022/03/29 05:49:28;;;;;;;53.30;47.30;;;;;;;8.48;64.96;97263.12;105211;1284;25260;-79
2022/03/29 05:51:56;;;;;;;46.90;42.30;;;;;;;8.53;65.07;97259.13;105158;1284;24231;-78
2022/03/29 05:54:24;;;;;;;52.30;44.50;;;;;;;8.58;64.84;97261.71;105250;1284;22715;-78
2022/03/29 05:56:53;;;;;;;58.10;45.10;;;;;;;8.66;64.83;97264.27;105146;1284;24132;-79
2022/03/29 05:59:21;;;;;;;48.20;42.90;;;;;;;8.75;64.76;97265.66;105330;1284;22597;-80
2022/03/29 06:01:49;;;;;;;45.40;40.70;;;;;;;8.81;64.97;97266.75;104957;1287;25381;-79
2022/03/29 06:04:22;;;;;;;43.70;39.20;;;;;;;8.85;64.71;97271.92;105189;1288;24326;-79
2022/03/29 06:06:50;;;;;;;45.60;40.60;;;;;;;8.87;64.75;97275.48;105284;1284;24309;-81
2022/03/29 06:09:18;;;;;;;47.50;40.50;;;;;;;8.89;65.59;97277.02;105180;1287;24395;-80
2022/03/29 06:11:47;;;;;;;45.00;40.20;;;;;;;8.88;65.25;97273.05;105225;1285;22556;-78
2022/03/29 06:14:15;;;;;;;43.80;39.20;;;;;;;8.91;64.89;97267.45;105073;1284;25315;-79
2022/03/29 06:16:43;;;;;;;43.00;38.20;;;;;;;8.96;64.80;97272.23;105234;1284;22877;-78
2022/03/29 06:19:11;;;;;;;45.20;40.70;;;;;;;9.00;65.11;97279.36;105182;1284;25301;-78
2022/03/29 06:21:40;;;;;;;44.20;39.50;;;;;;;9.01;65.09;97285.81;105149;1284;22594;-78
2022/03/29 06:24:09;;;;;;;46.30;41.50;;;;;;;9.00;65.13;97288.69;105206;1284;22698;-77
2022/03/29 06:26:41;;;;;;;47.40;43.00;;;;;;;8.98;65.39;97288.41;105195;1284;24234;-79
2022/03/29 06:29:10;;;;;;;43.90;40.00;;;;;;;8.96;65.75;97296.67;105048;1284;25677;-79
2022/03/29 06:31:39;;;;;;;44.80;40.20;;;;;;;8.95;65.62;97299.92;105323;1287;22607;-78
2022/03/29 06:34:07;;;;;;;45.40;40.80;;;;;;;8.95;65.98;97315.57;105232;1284;24232;-79
2022/03/29 06:36:35;;;;;;;45.50;41.20;;;;;;;8.90;66.56;97316.81;105187;1284;22553;-79
2022/03/29 06:39:04;;;;;;;46.20;42.00;;;;;;;8.84;66.06;97319.40;105191;1285;24263;-78
2022/03/29 06:41:32;;;;;;;51.90;47.20;;;;;;;8.78;67.45;97318.02;105004;1286;24070;-81
2022/03/29 06:44:00;;;;;;;47.40;42.60;;;;;;;8.72;67.05;97317.71;105467;1284;24285;-80
2022/03/29 06:46:28;;;;;;;45.50;41.40;;;;;;;8.68;67.40;97312.96;105432;1284;22584;-78
2022/03/29 06:48:57;;;;;;;47.60;42.80;;;;;;;8.68;67.52;97311.89;105248;1284;22653;-79
2022/03/29 06:51:27;;;;;;;45.60;41.40;;;;;;;8.66;68.41;97299.48;105074;1284;22576;-81
2022/03/29 06:53:55;;;;;;;46.10;41.60;;;;;;;8.62;68.38;97299.39;105394;1285;22714;-78
2022/03/29 06:56:24;;;;;;;45.30;41.20;;;;;;;8.59;68.45;97298.16;105471;1284;22569;-79
2022/03/29 06:58:53;;;;;;;45.10;41.10;;;;;;;8.60;68.05;97292.91;105390;1284;26583;-80
2022/03/29 07:01:21;;;;;;;41.10;37.40;;;;;;;8.62;67.97;97281.13;105308;1284;22540;-78
2022/03/29 07:03:51;;;;;;;45.30;41.00;;;;;;;8.66;68.88;97277.84;105222;1284;24547;-80
2022/03/29 07:06:18;;;;;;;46.10;41.80;;;;;;;8.65;68.84;97274.36;105481;1284;22544;-81
2022/03/29 07:11:53;;;;;;;44.50;40.40;;;;;;;8.71;68.62;97275.67;105473;1284;23021;-82
2022/03/29 07:14:21;;;;;;;42.90;39.00;;;;;;;8.79;68.90;97276.63;105715;1284;25333;-82
2022/03/29 07:16:50;;;;;;;46.40;42.20;;;;;;;8.89;69.31;97276.86;105564;1284;22558;-80
2022/03/29 07:19:18;;;;;;;47.10;42.90;;;;;;;8.99;68.97;97279.36;105573;1284;22630;-80
2022/03/29 07:21:48;;;;;;;49.10;44.50;;;;;;;9.09;68.97;97273.02;105250;1287;22603;-80
2022/03/29 07:24:16;;;;;;;48.60;44.00;;;;;;;9.21;69.00;97274.02;105198;1286;22628;-81
2022/03/29 07:26:44;;;;;;;50.60;46.00;;;;;;;9.33;68.85;97276.92;105154;1287;22635;-82
2022/03/29 07:29:17;;;;;;;44.30;40.30;;;;;;;9.45;69.14;97279.69;105368;1284;22670;-81
2022/03/29 07:31:45;;;;;;;45.60;41.10;;;;;;;9.55;68.84;97278.09;105645;1284;25377;-81
2022/03/29 07:34:13;;;;;;;45.50;41.40;;;;;;;9.64;68.55;97280.45;105317;1285;24597;-81
2022/03/29 07:36:41;;;;;;;48.80;44.00;;;;;;;9.71;68.41;97273.81;105409;1284;22588;-80
2022/03/29 07:39:10;;;;;;;47.40;42.90;;;;;;;9.76;68.22;97268.00;105544;1284;26647;-81
2022/03/29 07:41:38;;;;;;;48.30;43.90;;;;;;;9.82;68.18;97274.84;105065;1287;25491;-82
2022/03/29 07:44:06;;;;;;;52.00;47.10;;;;;;;9.86;68.15;97275.86;105557;1284;24445;-80
2022/03/29 07:46:34;;;;;;;46.40;41.70;;;;;;;9.92;68.11;97277.53;105551;1284;24448;-82
2022/03/29 07:49:02;;;;;;;45.80;41.50;;;;;;;9.97;67.88;97282.35;105586;1284;22578;-81
2022/03/29 07:51:50;;;;;;;54.00;48.80;;;;;;;10.04;67.75;97276.35;106012;1284;25427;-81
2022/03/29 07:54:18;;;;;;;56.30;51.10;;;;;;;10.10;67.89;97272.55;105752;1284;22702;-81
2022/03/29 07:56:46;;;;;;;58.40;52.50;;;;;;;10.13;67.75;97266.95;105491;1284;22616;-80
2022/03/29 07:59:14;;;;;;;66.60;60.60;;;;;;;10.16;68.07;97270.70;105202;1284;25401;-79
2022/03/29 08:01:42;;;;;;;63.60;57.80;;;;;;;10.15;68.05;97265.05;105290;1284;22993;-79
2022/03/29 08:04:10;;;;;;;63.40;57.50;;;;;;;10.19;68.20;97259.75;105036;1287;24435;-80
2022/03/29 08:06:38;;;;;;;52.30;47.40;;;;;;;10.26;68.07;97256.77;105063;1284;22700;-78
2022/03/29 08:09:06;;;;;;;57.00;51.90;;;;;;;10.34;68.37;97253.60;105229;1284;24353;-84
2022/03/29 08:11:36;;;;;;;48.30;43.90;;;;;;;10.43;68.06;97257.98;105379;1284;24133;-84
2022/03/29 08:14:04;;;;;;;51.00;46.40;;;;;;;10.42;67.89;97252.95;105353;1284;22766;-87
2022/03/29 08:16:33;;;;;;;44.50;40.20;;;;;;;10.48;67.46;97253.38;105579;1284;25417;-87
2022/03/29 08:19:01;;;;;;;43.30;39.30;;;;;;;10.51;66.11;97265.77;105785;1284;25410;-87
2022/03/29 08:21:47;;;;;;;47.40;42.90;;;;;;;10.45;64.81;97265.08;105184;1284;23034;-87
2022/03/29 08:24:21;;;;;;;46.10;42.10;;;;;;;10.34;64.53;97267.88;105480;1284;22571;-85
2022/03/29 08:26:52;;;;;;;43.10;39.00;;;;;;;10.31;64.74;97263.02;105448;1284;22566;-85
2022/03/29 08:29:26;;;;;;;44.60;40.70;;;;;;;10.31;64.44;97271.67;105424;1284;22730;-84
2022/03/29 08:31:54;;;;;;;51.30;46.30;;;;;;;10.27;63.55;97268.07;105457;1284;22671;-84
2022/03/29 08:34:22;;;;;;;43.10;39.30;;;;;;;10.23;64.22;97264.37;105392;1284;23968;-83
2022/03/29 08:36:52;;;;;;;44.50;40.40;;;;;;;10.26;63.98;97269.27;105103;1284;23967;-84
2022/03/29 08:39:20;;;;;;;42.80;39.00;;;;;;;10.28;63.65;97275.30;105619;1284;22575;-85
2022/03/29 08:42:07;;;;;;;41.80;38.00;;;;;;;10.25;63.44;97274.61;105405;1284;24298;-87
2022/03/29 08:44:38;;;;;;;38.30;34.20;;;;;;;10.27;63.68;97266.30;105588;1284;25416;-86
2022/03/29 08:47:07;;;;;;;37.70;33.90;;;;;;;10.33;63.55;97268.98;105478;1284;24343;-86
2022/03/29 08:49:36;;;;;;;47.50;42.60;;;;;;;10.36;63.12;97265.23;105740;1284;22567;-86
2022/03/29 08:52:05;;;;;;;41.50;37.40;;;;;;;10.39;62.92;97266.66;105537;1284;22726;-85
2022/03/29 08:54:33;;;;;;;45.60;37.00;;;;;;;10.41;62.44;97274.98;105552;1285;23028;-84
2022/03/29 08:57:01;;;;;;;35.90;32.50;;;;;;;10.47;62.65;97271.49;105598;1284;22650;-86
2022/03/29 08:59:29;;;;;;;32.90;29.60;;;;;;;10.53;62.08;97267.69;105379;1284;22569;-87
2022/03/29 09:02:07;;;;;;;27.40;24.70;;;;;;;10.53;61.87;97267.83;105735;1283;25492;-87
2022/03/29 09:04:35;;;;;;;29.70;25.80;;;;;;;10.46;61.73;97265.16;105553;1284;22553;-86
2022/03/29 09:07:03;;;;;;;27.90;25.20;;;;;;;10.46;61.88;97260.25;105484;1286;22720;-85
2022/03/29 09:09:37;;;;;;;29.90;27.10;;;;;;;10.51;61.32;97265.08;105522;1284;22811;-86
2022/03/29 09:12:14;;;;;;;26.40;24.00;;;;;;;10.56;61.40;97262.30;105509;1284;22570;-85
2022/03/29 09:14:59;;;;;;;25.70;23.10;;;;;;;10.60;61.56;97252.31;105691;1284;24429;-85
2022/03/29 09:17:32;;;;;;;28.00;25.10;;;;;;;10.66;61.58;97247.66;105983;1283;22702;-86
2022/03/29 09:20:04;;;;;;;35.20;31.40;;;;;;;10.78;61.30;97244.02;105534;1284;25405;-86
2022/03/29 09:22:39;;;;;;;27.30;24.70;;;;;;;10.89;60.90;97245.86;105620;1284;22586;-85
2022/03/29 09:25:15;;;;;;;27.40;24.70;;;;;;;10.90;60.50;97243.77;105672;1284;22560;-87
2022/03/29 09:28:11;;;;;;;28.90;26.30;;;;;;;10.86;60.60;97239.45;108467;1284;22771;-86
2022/03/29 09:30:45;;;;;;;27.70;25.10;;;;;;;10.91;60.61;97241.11;108738;1284;22762;-88
2022/03/29 09:33:22;;;;;;;28.10;25.30;;;;;;;11.02;60.82;97245.35;108726;1284;22575;-83
2022/03/29 09:36:10;;;;;;;26.70;24.00;;;;;;;11.13;60.50;97239.39;106995;1284;25936;-84
2022/03/29 09:38:41;;;;;;;27.80;24.90;;;;;;;11.23;58.70;97247.92;105937;1285;23888;-85
2022/03/29 09:41:21;;;;;;;27.50;24.80;;;;;;;11.22;59.10;97249.09;106110;1284;23762;-86
2022/03/29 09:44:06;;;;;;;25.70;23.20;;;;;;;11.19;58.73;97244.73;106356;1284;22561;-84
2022/03/29 09:50:25;;;;;;;26.80;24.00;;;;;;;11.16;58.82;97237.20;106503;1284;23139;-85
2022/03/29 09:52:53;;;;;;;26.30;23.60;;;;;;;11.19;58.41;97237.58;106517;1284;23418;-84
2022/03/29 09:55:22;;;;;;;25.20;22.80;;;;;;;11.21;58.33;97237.42;108476;1284;22587;-84
2022/03/29 09:57:52;;;;;;;34.20;30.60;;;;;;;11.23;58.34;97235.96;106761;1284;23021;-86
2022/03/29 10:00:29;;;;;;;28.30;25.60;;;;;;;11.29;58.40;97234.78;105655;1284;22577;-85
2022/03/29 10:02:59;;;;;;;26.20;23.70;;;;;;;11.31;58.25;97227.06;105653;1284;26215;-85
2022/03/29 10:05:30;;;;;;;28.20;25.60;;;;;;;11.35;57.73;97228.27;105580;1284;22769;-86
2022/03/29 10:10:49;;;;;;;31.10;28.00;;;;;;;11.39;58.14;97221.69;105518;1284;25612;-84
2022/03/29 10:13:23;;;;;;;31.00;27.90;;;;;;;11.50;58.08;97220.88;105557;1284;25309;-84
2022/03/29 10:15:54;;;;;;;35.10;31.80;;;;;;;11.60;57.91;97214.59;105400;1284;24435;-84
2022/03/29 10:18:27;;;;;;;37.70;34.40;;;;;;;11.71;58.24;97213.33;105660;1284;24293;-84
2022/03/29 10:20:56;;;;;;;36.10;32.70;;;;;;;11.78;57.96;97214.41;105619;1284;25467;-84
2022/03/29 10:23:28;;;;;;;38.10;34.70;;;;;;;11.82;57.77;97207.25;105611;1286;22804;-84
2022/03/29 10:26:04;;;;;;;36.20;32.80;;;;;;;11.79;57.46;97198.09;105662;1284;25482;-84
2022/03/29 10:28:32;;;;;;;39.60;36.10;;;;;;;11.78;57.62;97199.08;105618;1284;22816;-85
2022/03/29 10:31:01;;;;;;;40.30;36.70;;;;;;;11.84;57.55;97193.98;105491;1284;22577;-84
2022/03/29 10:33:33;;;;;;;39.40;35.50;;;;;;;11.89;57.35;97202.81;105353;1285;24225;-84
2022/03/29 10:36:09;;;;;;;40.80;36.90;;;;;;;11.88;57.72;97190.30;105433;1285;25268;-84
2022/03/29 10:38:46;;;;;;;41.50;37.50;;;;;;;11.95;57.75;97187.50;105441;1284;24432;-84
2022/03/29 10:41:27;;;;;;;40.50;36.40;;;;;;;12.04;57.60;97181.02;105565;1284;22553;-83
2022/03/29 10:44:08;;;;;;;40.30;36.50;;;;;;;12.10;57.16;97178.08;105486;1284;22582;-84
2022/03/29 10:46:36;;;;;;;42.50;38.40;;;;;;;12.14;56.94;97175.06;105610;1283;23947;-84
2022/03/29 10:49:21;;;;;;;38.50;35.10;;;;;;;12.12;56.92;97174.66;105446;1284;22568;-85
2022/03/29 10:52:16;;;;;;;108.80;79.80;;;;;;;12.12;56.53;97173.98;105572;1284;22592;-85
2022/03/29 10:54:43;;;;;;;49.90;44.70;;;;;;;12.16;56.73;97163.57;104688;1291;25517;-85
2022/03/29 10:57:28;;;;;;;40.80;36.50;;;;;;;12.24;56.88;97172.45;104654;1291;24374;-85
2022/03/29 11:00:10;;;;;;;39.90;36.20;;;;;;;12.30;56.53;97166.55;104689;1291;26586;-85
2022/03/29 11:03:13;;;;;;;34.20;31.10;;;;;;;12.31;56.17;97165.29;104620;1291;22603;-85
2022/03/29 11:06:07;;;;;;;38.20;34.60;;;;;;;12.27;55.93;97164.39;104593;1291;25387;-86
2022/03/29 11:08:41;;;;;;;37.40;34.00;;;;;;;12.23;56.14;97156.44;104696;1291;22769;-86
2022/03/29 11:11:46;;;;;;;38.80;31.30;;;;;;;12.29;56.51;97149.71;104764;1291;23049;-84
2022/03/29 11:14:37;;;;;;;30.90;27.90;;;;;;;12.46;56.45;97150.87;104921;1291;22554;-84
2022/03/29 11:17:11;;;;;;;30.90;27.90;;;;;;;12.54;55.80;97149.20;104741;1291;25309;-85
2022/03/29 11:19:46;;;;;;;30.70;27.80;;;;;;;12.43;55.61;97143.58;104724;1291;22871;-86
2022/03/29 11:22:23;;;;;;;;;;;;;;;12.35;55.51;97134.57;104573;1292;22709;-88
2022/03/29 11:24:59;;;;;;;35.90;32.40;;;;;;;12.35;56.02;97135.43;104464;1292;25451;-86
2022/03/29 11:27:32;;;;;;;30.70;27.70;;;;;;;12.46;55.60;97136.16;104511;1291;23122;-84
2022/03/29 11:30:04;;;;;;;30.10;27.50;;;;;;;12.53;55.52;97134.33;104748;1291;22737;-85
2022/03/29 11:32:34;;;;;;;28.40;25.60;;;;;;;12.57;55.26;97134.92;104975;1285;22635;-85
2022/03/29 11:35:06;;;;;;;28.30;25.60;;;;;;;12.60;54.99;97131.63;105533;1284;22718;-85
2022/03/29 11:37:39;;;;;;;28.50;25.90;;;;;;;12.58;54.98;97131.04;105574;1285;25372;-85
2022/03/29 11:40:09;;;;;;;27.70;25.20;;;;;;;12.58;54.58;97134.74;105589;1285;23441;-85
2022/03/29 11:42:52;;;;;;;25.50;23.10;;;;;;;12.61;54.96;97123.63;105552;1285;22607;-85